Time;durP1;ratioP1;P1;durP2;ratioP2;P2;SDS_P1;SDS_P2;PMS_P1;PMS_P2;Temp;Humidity;BMP_temperature;BMP_pressure;BME280_temperature;BME280_humidity;BME280_pressure;Samples;Min_cycle;Max_cycle;Signal;HPM_P1;HPM_P2
2022/09/10 00:01:15;;;;;;;5.18;3.13;;;26.80;99.90;;;;;;4144570;28;20081;-68
2022/09/10 00:03:20;;;;;;;6.13;3.30;;;26.90;99.90;;;;;;4141178;28;20056;-68
2022/09/10 00:05:26;;;;;;;6.20;3.88;;;26.80;99.90;;;;;;4140939;28;20071;-68
2022/09/10 00:07:31;;;;;;;8.10;6.10;;;26.80;99.90;;;;;;4142750;28;20060;-69
2022/09/10 00:09:36;;;;;;;10.57;6.20;;;26.80;99.90;;;;;;4141564;28;20049;-68
2022/09/10 00:11:45;;;;;;;9.38;6.30;;;26.80;99.90;;;;;;4140226;28;20045;-68
2022/09/10 00:13:51;;;;;;;8.98;5.10;;;26.80;99.90;;;;;;4142530;28;20492;-68
2022/09/10 00:15:58;;;;;;;6.65;3.92;;;26.90;99.90;;;;;;4141886;28;20045;-68
2022/09/10 00:18:05;;;;;;;7.18;4.80;;;26.90;99.90;;;;;;4142766;28;20053;-67
2022/09/10 00:20:11;;;;;;;6.88;4.13;;;26.90;99.90;;;;;;4142391;28;20108;-68
2022/09/10 00:22:16;;;;;;;5.55;3.70;;;26.80;99.90;;;;;;4142348;28;20440;-69
2022/09/10 00:24:21;;;;;;;5.88;3.70;;;26.80;99.90;;;;;;4140670;28;20046;-68
2022/09/10 00:26:27;;;;;;;5.80;3.50;;;26.80;99.90;;;;;;4142276;28;20169;-68
2022/09/10 00:28:32;;;;;;;9.30;4.05;;;26.80;99.90;;;;;;4157376;28;20057;-68
2022/09/10 00:30:45;;;;;;;6.28;4.05;;;26.70;99.90;;;;;;4142321;28;20141;-68
2022/09/10 00:32:52;;;;;;;5.45;3.88;;;26.60;99.90;;;;;;4142167;28;20073;-68
2022/09/10 00:34:56;;;;;;;7.68;4.07;;;26.70;99.90;;;;;;4157336;28;20057;-68
2022/09/10 00:37:04;;;;;;;6.40;4.60;;;26.80;99.90;;;;;;4142205;28;20814;-68
2022/09/10 00:39:11;;;;;;;6.45;4.80;;;26.80;99.90;;;;;;4142118;28;20037;-67
2022/09/10 00:41:17;;;;;;;6.90;4.32;;;26.80;99.90;;;;;;4157268;28;20108;-69
2022/09/10 00:43:22;;;;;;;8.07;4.30;;;26.80;99.90;;;;;;4141744;28;20049;-67
2022/09/10 00:45:30;;;;;;;6.82;4.80;;;26.90;99.90;;;;;;4156967;28;20216;-66
2022/09/10 00:47:38;;;;;;;6.85;5.00;;;26.90;99.90;;;;;;4141822;28;20076;-68
2022/09/10 00:49:47;;;;;;;7.07;4.57;;;27.00;99.90;;;;;;4144097;28;20136;-70
2022/09/10 00:51:52;;;;;;;6.55;4.25;;;27.00;99.90;;;;;;4141332;28;20057;-68
2022/09/10 00:53:57;;;;;;;5.53;4.50;;;27.00;99.90;;;;;;4143775;28;20572;-67
2022/09/10 00:56:04;;;;;;;6.88;4.15;;;27.10;99.90;;;;;;4158935;28;20140;-67
2022/09/10 00:58:13;;;;;;;5.97;3.90;;;27.20;99.90;;;;;;4143518;28;20052;-67
2022/09/10 01:00:17;;;;;;;5.93;3.60;;;27.30;99.90;;;;;;4141950;28;20130;-67
2022/09/10 01:02:23;;;;;;;6.57;3.70;;;27.40;99.90;;;;;;4127904;28;20046;-67
2022/09/10 01:04:30;;;;;;;7.40;3.72;;;27.40;99.90;;;;;;4144835;28;20108;-67
2022/09/10 01:06:34;;;;;;;4.40;3.47;;;27.40;99.90;;;;;;4141591;28;20058;-67
2022/09/10 01:08:40;;;;;;;7.30;4.22;;;27.40;99.90;;;;;;4127082;28;20054;-67
2022/09/10 01:11:10;;;;;;;8.95;4.00;;;27.50;99.90;;;;;;4144990;28;20049;-67
2022/09/10 01:13:48;;;;;;;6.03;3.67;;;27.60;99.90;;;;;;4173909;28;20454;-67
2022/09/10 01:16:31;;;;;;;9.80;3.95;;;27.60;99.90;;;;;;4145477;28;20474;-67
2022/09/10 01:18:53;;;;;;;6.50;3.63;;;27.50;99.90;;;;;;4161946;28;20053;-67
2022/09/10 01:21:25;;;;;;;4.32;3.40;;;27.60;99.90;;;;;;4136372;28;20062;-68
2022/09/10 01:23:59;;;;;;;4.43;2.75;;;27.80;99.90;;;;;;4147239;28;20058;-67
2022/09/10 01:26:28;;;;;;;5.28;3.20;;;27.90;99.90;;;;;;4111870;28;20059;-67
2022/09/10 01:29:01;;;;;;;4.95;2.70;;;28.00;99.90;;;;;;4161840;28;20462;-68
2022/09/10 01:31:25;;;;;;;4.45;2.67;;;27.90;99.90;;;;;;4178246;28;20079;-67
2022/09/10 01:33:36;;;;;;;3.40;2.42;;;27.90;99.90;;;;;;4161806;28;20049;-67
2022/09/10 01:36:01;;;;;;;3.88;2.42;;;28.00;99.90;;;;;;4145654;28;20062;-68
2022/09/10 01:38:11;;;;;;;4.07;2.30;;;28.10;99.90;;;;;;4146827;28;20050;-67
2022/09/10 01:40:17;;;;;;;6.60;2.33;;;28.20;99.90;;;;;;4162058;28;20091;-68
2022/09/10 01:42:27;;;;;;;6.28;2.40;;;28.20;99.90;;;;;;4161514;28;20075;-68
2022/09/10 01:44:44;;;;;;;2.85;1.80;;;28.20;99.90;;;;;;4146844;28;20042;-68
2022/09/10 01:46:59;;;;;;;3.85;1.85;;;28.30;99.90;;;;;;4162012;28;20045;-68
2022/09/10 01:49:35;;;;;;;2.70;1.80;;;28.30;99.90;;;;;;4161242;28;20492;-67
2022/09/10 01:52:08;;;;;;;2.88;2.00;;;28.30;99.90;;;;;;4144804;28;20107;-67
2022/09/10 01:54:44;;;;;;;3.15;1.85;;;28.30;99.90;;;;;;4177433;28;20083;-67
2022/09/10 01:57:10;;;;;;;4.47;1.67;;;28.40;99.90;;;;;;4176149;28;20052;-68
2022/09/10 01:59:43;;;;;;;3.33;2.20;;;28.50;99.90;;;;;;4143110;28;20042;-68
2022/09/10 02:01:50;;;;;;;4.75;1.80;;;28.50;99.90;;;;;;4160812;28;20049;-68
2022/09/10 02:04:01;;;;;;;3.67;2.15;;;28.50;99.90;;;;;;4145171;28;20042;-68
2022/09/10 02:06:08;;;;;;;68.25;7.63;;;28.60;99.90;;;;;;4145392;28;20107;-68
2022/09/10 02:08:26;;;;;;;43.40;4.55;;;28.60;99.90;;;;;;4145728;28;20064;-68
2022/09/10 02:10:31;;;;;;;9.93;2.20;;;28.70;99.90;;;;;;4145934;28;20812;-68
2022/09/10 02:12:41;;;;;;;6.75;1.90;;;28.80;99.90;;;;;;4143516;28;20520;-69
2022/09/10 02:14:58;;;;;;;8.05;2.17;;;28.80;99.90;;;;;;4142305;28;20073;-69
2022/09/10 02:17:17;;;;;;;6.97;1.80;;;28.90;99.90;;;;;;4144781;28;20355;-69
2022/09/10 02:19:21;;;;;;;8.80;2.05;;;28.90;99.90;;;;;;4144138;28;20088;-70
2022/09/10 02:21:31;;;;;;;6.68;1.90;;;28.90;99.90;;;;;;4145383;28;20489;-68
2022/09/10 02:23:52;;;;;;;3.50;1.85;;;28.90;99.90;;;;;;4141091;28;20122;-68
2022/09/10 02:25:59;;;;;;;4.03;1.75;;;28.90;99.90;;;;;;4144754;28;20054;-68
2022/09/10 02:28:04;;;;;;;3.65;1.80;;;29.00;99.90;;;;;;4145200;28;20077;-68
2022/09/10 02:30:12;;;;;;;3.05;2.00;;;29.00;99.90;;;;;;4160441;28;20668;-68
2022/09/10 02:32:16;;;;;;;3.42;1.90;;;29.00;99.90;;;;;;4111116;28;20054;-68
2022/09/10 02:34:21;;;;;;;2.53;1.90;;;29.00;99.90;;;;;;4176717;28;20140;-68
2022/09/10 02:36:30;;;;;;;6.80;1.77;;;29.10;99.90;;;;;;4145443;28;20638;-67
2022/09/10 02:38:37;;;;;;;3.97;1.85;;;29.10;99.90;;;;;;4124051;28;20055;-68
2022/09/10 02:40:47;;;;;;;5.38;2.28;;;29.20;99.90;;;;;;4143768;28;20412;-68
2022/09/10 02:42:54;;;;;;;3.40;1.80;;;29.20;99.90;;;;;;4143733;28;20057;-68
2022/09/10 02:45:00;;;;;;;4.30;2.13;;;29.30;99.90;;;;;;4144088;28;20073;-68
2022/09/10 02:47:06;;;;;;;4.47;2.20;;;29.40;99.90;;;;;;4160450;28;20050;-68
2022/09/10 02:49:13;;;;;;;6.38;2.00;;;29.40;99.90;;;;;;4157843;28;20897;-69
2022/09/10 02:51:22;;;;;;;2.65;1.92;;;29.50;99.90;;;;;;4159938;28;20534;-68
2022/09/10 02:53:26;;;;;;;4.25;2.03;;;29.50;99.90;;;;;;4145065;28;20062;-65
2022/09/10 02:55:34;;;;;;;3.35;1.98;;;29.50;99.90;;;;;;4144138;28;20069;-70
2022/09/10 02:57:42;;;;;;;4.50;2.20;;;29.50;99.90;;;;;;4143754;28;20473;-68
2022/09/10 02:59:49;;;;;;;3.50;2.20;;;29.50;99.90;;;;;;4144883;28;20477;-69
2022/09/10 03:01:54;;;;;;;4.32;2.22;;;29.50;99.90;;;;;;4141878;28;20046;-70
2022/09/10 03:03:59;;;;;;;6.63;2.50;;;29.50;99.90;;;;;;4142884;28;20053;-70
2022/09/10 03:06:06;;;;;;;4.28;2.10;;;29.50;99.90;;;;;;4177021;28;20439;-70
2022/09/10 03:08:12;;;;;;;3.13;2.03;;;29.60;99.90;;;;;;4176787;28;20049;-70
2022/09/10 03:10:22;;;;;;;3.47;2.35;;;29.60;99.90;;;;;;4143986;28;20068;-70
2022/09/10 03:12:27;;;;;;;4.07;2.42;;;29.70;99.90;;;;;;4148055;28;20046;-70
2022/09/10 03:14:33;;;;;;;3.40;1.88;;;29.80;99.90;;;;;;4163258;28;20128;-70
2022/09/10 03:16:39;;;;;;;2.33;1.70;;;29.80;99.90;;;;;;4148230;28;20045;-70
2022/09/10 03:18:44;;;;;;;2.67;1.70;;;29.80;99.90;;;;;;4163239;28;20057;-70
2022/09/10 03:20:51;;;;;;;4.93;1.98;;;29.80;99.90;;;;;;4146426;28;20053;-70
2022/09/10 03:22:58;;;;;;;3.42;1.90;;;29.90;99.90;;;;;;4146214;28;20473;-69
2022/09/10 03:25:05;;;;;;;5.60;2.03;;;30.00;99.90;;;;;;4157292;28;20076;-68
2022/09/10 03:27:15;;;;;;;3.90;2.13;;;30.00;99.90;;;;;;4158360;28;20052;-69
2022/09/10 03:29:23;;;;;;;2.22;1.80;;;30.00;99.90;;;;;;4174725;28;20107;-68
2022/09/10 03:31:27;;;;;;;3.35;1.90;;;30.00;99.90;;;;;;4159710;28;20045;-69
2022/09/10 03:33:34;;;;;;;3.63;2.05;;;29.90;99.90;;;;;;4158733;28;20049;-69
2022/09/10 03:35:39;;;;;;;4.07;2.28;;;29.90;99.90;;;;;;4175922;28;20135;-69
2022/09/10 03:37:45;;;;;;;5.55;2.17;;;29.90;99.90;;;;;;4159537;28;20045;-69
2022/09/10 03:39:53;;;;;;;4.05;1.92;;;29.90;99.90;;;;;;4159009;28;20034;-68
2022/09/10 03:41:58;;;;;;;3.78;1.90;;;30.00;99.90;;;;;;4141654;28;20776;-69
2022/09/10 03:44:04;;;;;;;4.63;1.90;;;30.00;99.90;;;;;;4157909;28;20858;-69
2022/09/10 03:46:11;;;;;;;3.30;2.00;;;30.00;99.90;;;;;;4162153;28;20091;-69
2022/09/10 03:48:19;;;;;;;3.58;1.77;;;30.10;99.90;;;;;;4160414;28;20049;-69
2022/09/10 03:50:25;;;;;;;3.60;2.10;;;30.20;99.90;;;;;;4162241;28;20369;-69
2022/09/10 03:52:29;;;;;;;2.95;1.90;;;30.30;99.90;;;;;;4147375;28;20064;-69
2022/09/10 03:54:34;;;;;;;3.88;1.85;;;30.30;99.90;;;;;;4162390;28;20083;-69
2022/09/10 03:56:38;;;;;;;4.65;2.00;;;30.30;99.90;;;;;;4160151;28;20480;-69
2022/09/10 03:58:47;;;;;;;2.00;1.70;;;30.40;99.90;;;;;;4154648;28;20050;-69
2022/09/10 04:00:56;;;;;;;2.70;1.88;;;30.40;99.90;;;;;;4145067;28;20499;-69
2022/09/10 04:03:01;;;;;;;2.17;1.60;;;30.30;99.90;;;;;;4161672;28;20482;-69
2022/09/10 04:05:07;;;;;;;2.20;1.70;;;30.30;99.90;;;;;;4147146;28;20714;-69
2022/09/10 04:07:12;;;;;;;3.75;1.90;;;30.30;99.90;;;;;;4179186;28;20049;-68
2022/09/10 04:09:17;;;;;;;3.67;1.98;;;30.30;99.90;;;;;;4143655;28;20575;-68
2022/09/10 04:11:26;;;;;;;4.43;1.98;;;30.30;99.90;;;;;;4148062;28;20064;-67
2022/09/10 04:13:33;;;;;;;5.25;2.45;;;30.40;99.90;;;;;;4180003;28;20103;-67
2022/09/10 04:15:38;;;;;;;4.57;2.40;;;30.50;99.90;;;;;;4163059;28;20140;-67
2022/09/10 04:17:45;;;;;;;2.92;2.15;;;30.50;99.90;;;;;;4147777;28;20132;-69
2022/09/10 04:19:53;;;;;;;3.42;2.00;;;30.40;99.90;;;;;;4162212;28;20053;-68
2022/09/10 04:21:58;;;;;;;3.22;2.03;;;30.40;99.90;;;;;;4146650;28;20037;-68
2022/09/10 04:24:08;;;;;;;2.90;2.10;;;30.30;99.90;;;;;;4162203;28;20390;-68
2022/09/10 04:26:18;;;;;;;2.58;2.08;;;30.40;99.90;;;;;;4178038;28;20052;-67
2022/09/10 04:28:25;;;;;;;3.72;2.05;;;30.50;99.90;;;;;;4159964;28;20049;-68
2022/09/10 04:30:32;;;;;;;4.70;2.08;;;30.70;99.90;;;;;;4161580;28;20053;-67
2022/09/10 04:32:45;;;;;;;3.50;1.83;;;30.80;99.90;;;;;;4113222;28;20558;-69
2022/09/10 04:34:50;;;;;;;4.55;1.77;;;30.70;99.90;;;;;;4146788;28;20046;-70
2022/09/10 04:36:56;;;;;;;3.70;1.70;;;30.80;99.90;;;;;;4146775;28;20048;-68
2022/09/10 04:39:03;;;;;;;2.83;1.92;;;30.90;99.90;;;;;;4125709;28;20664;-68
2022/09/10 04:41:09;;;;;;;2.83;1.80;;;31.00;99.90;;;;;;4159263;28;20103;-69
2022/09/10 04:43:17;;;;;;;2.45;1.70;;;31.00;99.90;;;;;;4162055;28;20108;-68
2022/09/10 04:45:24;;;;;;;2.33;1.40;;;31.00;99.90;;;;;;4161878;28;20049;-67
2022/09/10 04:47:30;;;;;;;2.63;1.50;;;31.00;99.90;;;;;;4175840;28;20045;-68
2022/09/10 04:49:36;;;;;;;2.45;1.20;;;31.10;99.90;;;;;;4162120;28;20504;-68
2022/09/10 04:51:44;;;;;;;1.67;1.45;;;31.20;99.90;;;;;;4160554;28;20546;-68
2022/09/10 04:53:50;;;;;;;1.55;1.45;;;31.30;99.90;;;;;;4144422;28;20041;-68
2022/09/10 04:55:59;;;;;;;2.80;1.35;;;31.30;99.90;;;;;;4161047;28;20045;-69
2022/09/10 04:58:12;;;;;;;1.33;1.10;;;31.30;99.90;;;;;;4159754;28;20496;-68
2022/09/10 05:00:19;;;;;;;1.75;1.10;;;31.40;99.90;;;;;;4159354;28;20041;-66
2022/09/10 05:02:29;;;;;;;3.10;1.25;;;31.50;99.90;;;;;;4145506;28;20045;-69
2022/09/10 05:04:36;;;;;;;2.03;1.20;;;31.60;99.90;;;;;;4176966;28;20037;-69
2022/09/10 05:06:43;;;;;;;2.33;1.33;;;31.60;99.90;;;;;;4160597;28;20049;-68
2022/09/10 05:08:50;;;;;;;2.17;1.20;;;31.50;99.90;;;;;;4141285;28;20084;-67
2022/09/10 05:10:59;;;;;;;4.30;1.60;;;31.40;99.90;;;;;;4110580;28;20538;-67
2022/09/10 05:13:05;;;;;;;4.55;1.95;;;31.50;99.90;;;;;;4143900;28;20042;-66
2022/09/10 05:15:10;;;;;;;5.05;3.03;;;31.60;99.90;;;;;;4142660;28;20053;-67
2022/09/10 05:17:17;;;;;;;4.55;2.67;;;31.70;99.90;;;;;;4160351;28;20716;-67
2022/09/10 05:19:22;;;;;;;3.35;2.30;;;31.70;99.90;;;;;;4159695;28;20440;-67
2022/09/10 05:21:38;;;;;;;1.77;1.42;;;31.80;99.90;;;;;;4158327;28;20511;-67
2022/09/10 05:23:44;;;;;;;2.72;1.30;;;31.60;99.90;;;;;;4176573;28;20045;-68
2022/09/10 05:25:49;;;;;;;2.05;1.63;;;31.70;99.90;;;;;;4159882;28;20426;-68
2022/09/10 05:27:56;;;;;;;1.77;1.55;;;31.70;99.90;;;;;;4145059;28;20045;-69
2022/09/10 05:30:03;;;;;;;2.00;1.55;;;31.70;99.90;;;;;;4110680;28;20051;-68
2022/09/10 05:32:12;;;;;;;2.08;1.60;;;31.70;99.90;;;;;;4173614;28;20750;-68
2022/09/10 05:34:19;;;;;;;3.35;1.70;;;31.80;99.90;;;;;;4143278;28;20781;-68
2022/09/10 05:36:27;;;;;;;3.72;1.88;;;31.90;99.90;;;;;;4159784;28;20045;-69
2022/09/10 05:38:32;;;;;;;1.70;1.40;;;31.90;99.90;;;;;;4159046;28;20057;-69
2022/09/10 05:40:44;;;;;;;2.33;1.60;;;31.90;99.90;;;;;;4159550;28;20322;-68
2022/09/10 05:42:52;;;;;;;2.67;1.52;;;31.90;99.90;;;;;;4107828;28;20126;-66
2022/09/10 05:44:57;;;;;;;2.33;1.80;;;31.90;99.90;;;;;;4143773;28;20037;-66
2022/09/10 05:47:07;;;;;;;3.10;1.60;;;31.90;99.90;;;;;;4143827;28;20046;-66
2022/09/10 05:49:14;;;;;;;2.30;1.80;;;31.90;99.90;;;;;;4141247;28;20088;-67
2022/09/10 05:51:19;;;;;;;2.03;1.83;;;31.90;99.90;;;;;;4159504;28;20057;-66
2022/09/10 05:53:27;;;;;;;1.95;1.73;;;31.90;99.90;;;;;;4159113;28;20096;-67
2022/09/10 05:55:34;;;;;;;3.55;1.90;;;32.10;99.90;;;;;;4140891;28;20056;-67
2022/09/10 05:57:40;;;;;;;2.00;1.80;;;32.10;99.90;;;;;;4160034;28;20436;-66
2022/09/10 05:59:51;;;;;;;2.22;1.92;;;32.20;99.90;;;;;;4143245;28;20052;-66
2022/09/10 06:01:59;;;;;;;2.60;1.90;;;32.20;99.90;;;;;;4157474;28;20038;-67
2022/09/10 06:04:06;;;;;;;3.28;1.92;;;32.20;99.90;;;;;;4175887;28;20048;-67
2022/09/10 06:06:16;;;;;;;2.10;1.50;;;32.20;99.90;;;;;;4144789;28;20042;-67
2022/09/10 06:08:30;;;;;;;1.92;1.52;;;32.20;99.90;;;;;;4159356;28;20045;-66
2022/09/10 06:10:39;;;;;;;1.95;1.70;;;32.40;99.90;;;;;;4158468;28;20045;-67
2022/09/10 06:12:48;;;;;;;2.13;1.40;;;32.40;99.90;;;;;;4159363;28;20088;-68
2022/09/10 06:14:55;;;;;;;2.08;1.73;;;32.40;99.90;;;;;;4139768;28;20131;-67
2022/09/10 06:17:00;;;;;;;2.17;1.55;;;32.50;99.90;;;;;;4159094;28;20049;-68
2022/09/10 06:19:09;;;;;;;2.88;1.38;;;32.40;99.90;;;;;;4142354;28;20053;-68
2022/09/10 06:21:16;;;;;;;2.47;1.45;;;32.40;99.90;;;;;;4123140;28;20081;-69
2022/09/10 06:23:24;;;;;;;1.45;1.35;;;32.40;99.90;;;;;;4143055;28;20578;-69
2022/09/10 06:25:31;;;;;;;1.50;1.40;;;32.40;99.90;;;;;;4159026;28;20057;-71
2022/09/10 06:27:37;;;;;;;1.70;1.60;;;32.40;99.90;;;;;;4159601;28;20618;-69
2022/09/10 06:29:42;;;;;;;2.53;1.50;;;32.40;99.90;;;;;;4159450;28;20755;-68
2022/09/10 06:31:49;;;;;;;2.15;1.33;;;32.40;99.90;;;;;;4160182;28;20872;-69
2022/09/10 06:33:54;;;;;;;1.63;1.40;;;32.30;99.90;;;;;;4157632;28;20045;-67
2022/09/10 06:36:03;;;;;;;4.97;1.70;;;32.30;99.90;;;;;;4175685;28;20053;-68
2022/09/10 06:38:08;;;;;;;2.70;1.63;;;32.30;99.90;;;;;;4160769;28;20076;-68
2022/09/10 06:40:12;;;;;;;2.85;1.80;;;32.30;99.90;;;;;;4160454;28;20740;-68
2022/09/10 06:42:18;;;;;;;2.58;1.70;;;32.30;99.90;;;;;;4159726;28;20037;-68
2022/09/10 06:44:38;;;;;;;2.10;1.90;;;32.30;99.90;;;;;;4143557;28;20042;-68
2022/09/10 06:46:53;;;;;;;2.22;1.70;;;32.30;99.90;;;;;;4160187;28;20045;-68
2022/09/10 06:49:17;;;;;;;3.08;1.55;;;32.30;99.90;;;;;;4176395;28;20503;-68
2022/09/10 06:51:25;;;;;;;1.58;1.48;;;32.40;99.90;;;;;;4160102;28;20042;-68
2022/09/10 06:53:32;;;;;;;1.65;1.40;;;32.30;99.90;;;;;;4176549;28;20103;-68
2022/09/10 06:55:38;;;;;;;1.70;1.60;;;32.30;99.90;;;;;;4176035;28;20080;-68
2022/09/10 06:57:44;;;;;;;2.67;1.80;;;32.20;99.90;;;;;;4145196;28;20073;-68
2022/09/10 06:59:52;;;;;;;1.60;1.50;;;32.20;99.90;;;;;;4109516;28;20042;-69
2022/09/10 07:01:57;;;;;;;1.70;1.60;;;32.10;99.90;;;;;;4160007;28;20045;-69
2022/09/10 07:04:05;;;;;;;2.72;1.77;;;32.00;99.90;;;;;;4142780;28;20076;-69
2022/09/10 07:06:15;;;;;;;2.40;1.63;;;32.00;99.90;;;;;;4175214;28;20056;-69
2022/09/10 07:08:24;;;;;;;5.50;1.67;;;31.90;99.90;;;;;;4160277;28;20060;-68
2022/09/10 07:10:32;;;;;;;2.47;1.55;;;31.90;99.90;;;;;;4159287;28;20666;-68
2022/09/10 07:12:40;;;;;;;2.63;1.60;;;31.80;99.90;;;;;;4174011;28;20098;-69
2022/09/10 07:14:45;;;;;;;2.45;1.80;;;31.80;99.90;;;;;;4144742;28;20397;-70
2022/09/10 07:16:52;;;;;;;4.82;1.85;;;31.70;99.90;;;;;;4157434;28;20041;-69
2022/09/10 07:19:02;;;;;;;2.20;1.52;;;31.60;99.90;;;;;;4175093;28;20049;-69
2022/09/10 07:21:14;;;;;;;2.60;2.00;;;31.60;99.90;;;;;;4157668;28;20063;-69
2022/09/10 07:23:22;;;;;;;2.83;2.03;;;31.60;99.90;;;;;;4157971;28;20136;-69
2022/09/10 07:25:28;;;;;;;3.63;1.83;;;31.60;99.90;;;;;;4142345;28;20461;-67
2022/09/10 07:27:39;;;;;;;3.17;1.90;;;31.50;99.90;;;;;;4142678;28;20452;-68
2022/09/10 07:29:45;;;;;;;3.38;1.80;;;31.50;99.90;;;;;;4156175;28;20941;-69
2022/09/10 07:31:53;;;;;;;2.67;1.80;;;31.40;99.90;;;;;;4157933;28;20536;-69
2022/09/10 07:34:00;;;;;;;3.17;2.20;;;31.40;99.90;;;;;;4173486;28;20107;-67
2022/09/10 07:36:08;;;;;;;3.25;2.65;;;31.40;99.90;;;;;;4142578;28;20068;-68
2022/09/10 07:38:19;;;;;;;3.78;2.38;;;31.30;99.90;;;;;;4142549;28;20141;-68
2022/09/10 07:40:26;;;;;;;2.35;1.75;;;31.20;99.90;;;;;;4141963;28;20042;-68
2022/09/10 07:42:34;;;;;;;7.50;2.45;;;31.10;99.90;;;;;;4158257;28;20076;-68
2022/09/10 07:44:40;;;;;;;5.47;2.00;;;31.10;99.90;;;;;;4172602;28;20045;-68
2022/09/10 07:46:45;;;;;;;5.03;1.98;;;31.00;99.90;;;;;;4142036;28;20053;-69
2022/09/10 07:48:58;;;;;;;3.53;2.25;;;31.00;99.90;;;;;;4174065;28;20052;-67
2022/09/10 07:51:07;;;;;;;4.38;2.30;;;30.90;99.90;;;;;;4171828;28;20095;-68
2022/09/10 07:53:12;;;;;;;3.63;2.33;;;30.90;99.90;;;;;;4174781;28;20077;-67
2022/09/10 07:55:22;;;;;;;3.58;2.38;;;30.80;99.90;;;;;;4142394;28;20460;-68
2022/09/10 07:57:30;;;;;;;5.30;2.33;;;30.80;99.90;;;;;;4142059;28;20515;-68
2022/09/10 07:59:34;;;;;;;3.33;2.22;;;30.80;99.90;;;;;;4161623;28;20688;-68
2022/09/10 08:01:42;;;;;;;5.35;2.22;;;30.80;99.90;;;;;;4160752;28;20050;-68
2022/09/10 08:03:55;;;;;;;3.00;2.17;;;30.60;99.90;;;;;;4161289;28;20451;-70
2022/09/10 08:06:01;;;;;;;3.88;1.63;;;30.60;99.90;;;;;;4160125;28;20075;-68
2022/09/10 08:08:09;;;;;;;3.05;2.08;;;30.70;99.90;;;;;;4143407;28;20088;-68
2022/09/10 08:10:15;;;;;;;2.45;1.80;;;30.60;99.90;;;;;;4161546;28;20111;-67
2022/09/10 08:12:20;;;;;;;2.40;1.70;;;30.50;99.90;;;;;;4145848;28;20129;-68
2022/09/10 08:14:28;;;;;;;3.53;1.88;;;30.50;99.90;;;;;;4146881;28;20073;-68
2022/09/10 08:16:36;;;;;;;3.25;1.60;;;30.40;99.90;;;;;;4145521;28;20543;-68
2022/09/10 08:18:48;;;;;;;3.83;2.08;;;30.30;99.90;;;;;;4146984;28;20061;-69
2022/09/10 08:20:54;;;;;;;2.03;1.80;;;30.30;99.90;;;;;;4159496;28;20069;-68
2022/09/10 08:23:02;;;;;;;4.25;1.60;;;30.30;99.90;;;;;;4145072;28;20046;-68
2022/09/10 08:25:07;;;;;;;4.78;1.30;;;30.20;99.90;;;;;;4144477;28;20504;-68
2022/09/10 08:27:14;;;;;;;2.80;1.33;;;30.10;99.90;;;;;;4146634;28;20049;-68
2022/09/10 08:29:23;;;;;;;4.63;1.10;;;30.00;99.90;;;;;;4145341;28;20765;-68
2022/09/10 08:31:28;;;;;;;3.97;1.25;;;29.90;99.90;;;;;;4160854;28;20069;-69
2022/09/10 08:33:50;;;;;;;2.08;0.95;;;29.70;99.90;;;;;;4144317;28;20088;-69
2022/09/10 08:35:58;;;;;;;0.88;0.70;;;29.50;99.90;;;;;;4142090;28;20425;-68
2022/09/10 08:38:03;;;;;;;5.28;1.10;;;29.50;99.90;;;;;;4157383;28;20116;-69
2022/09/10 08:40:12;;;;;;;2.10;0.95;;;29.20;99.90;;;;;;4141544;28;20531;-69
2022/09/10 08:42:41;;;;;;;4.97;1.10;;;29.20;99.90;;;;;;4096543;28;20080;-68
2022/09/10 08:44:55;;;;;;;5.18;1.02;;;29.10;99.90;;;;;;4137701;28;20046;-68
2022/09/10 08:47:35;;;;;;;4.60;1.10;;;29.00;99.90;;;;;;4145052;28;20053;-68
2022/09/10 08:49:51;;;;;;;2.03;1.10;;;28.90;99.90;;;;;;4145797;28;20092;-68
2022/09/10 08:52:18;;;;;;;3.53;1.30;;;29.00;99.90;;;;;;4160338;28;20124;-69
2022/09/10 08:54:31;;;;;;;3.55;1.10;;;29.00;99.90;;;;;;4144656;28;20082;-68
2022/09/10 08:56:36;;;;;;;1.70;0.63;;;29.00;99.90;;;;;;4144649;28;20048;-68
2022/09/10 08:59:02;;;;;;;3.03;0.73;;;29.10;99.90;;;;;;4145254;28;20465;-68
2022/09/10 09:01:14;;;;;;;4.57;1.20;;;29.10;99.90;;;;;;4160147;28;20041;-68
2022/09/10 09:03:34;;;;;;;4.35;0.88;;;29.00;99.90;;;;;;4146234;28;20041;-67
2022/09/10 09:05:47;;;;;;;3.10;0.60;;;29.00;99.90;;;;;;4160201;28;20096;-67
2022/09/10 09:07:52;;;;;;;3.47;0.90;;;29.00;99.90;;;;;;4175238;28;20059;-67
2022/09/10 09:10:00;;;;;;;3.67;1.05;;;28.90;99.90;;;;;;4144280;28;20520;-67
2022/09/10 09:12:29;;;;;;;3.38;0.90;;;28.80;99.90;;;;;;4159413;28;20061;-68
2022/09/10 09:14:56;;;;;;;3.65;1.00;;;28.90;99.90;;;;;;4143447;28;20053;-67
2022/09/10 09:17:35;;;;;;;3.92;1.00;;;28.90;99.90;;;;;;4159221;28;20071;-68
2022/09/10 09:20:05;;;;;;;2.60;1.02;;;28.80;99.90;;;;;;4160466;28;20076;-69
2022/09/10 09:22:33;;;;;;;3.47;1.17;;;28.70;99.90;;;;;;4144422;28;20140;-67
2022/09/10 09:25:24;;;;;;;3.90;1.40;;;28.60;99.90;;;;;;4140403;28;20523;-68
2022/09/10 09:27:34;;;;;;;5.28;1.40;;;28.60;99.90;;;;;;4176840;28;20379;-67
2022/09/10 09:30:05;;;;;;;2.03;1.38;;;28.50;99.90;;;;;;4149089;28;20041;-68
2022/09/10 09:32:14;;;;;;;4.93;2.10;;;28.60;99.90;;;;;;4173027;28;20037;-68
2022/09/10 09:34:43;;;;;;;6.15;2.00;;;28.60;99.90;;;;;;4164552;28;20049;-68
2022/09/10 09:36:53;;;;;;;6.30;1.85;;;28.70;99.90;;;;;;4153978;28;20042;-69
2022/09/10 09:39:00;;;;;;;3.80;1.50;;;28.50;99.90;;;;;;4154653;28;20056;-68
2022/09/10 09:41:34;;;;;;;4.07;1.55;;;28.50;99.90;;;;;;4155864;28;20069;-69
2022/09/10 09:44:10;;;;;;;7.73;2.10;;;28.50;99.90;;;;;;4140765;28;20057;-69
2022/09/10 09:46:18;;;;;;;4.82;1.90;;;28.40;99.90;;;;;;4157760;28;20444;-69
2022/09/10 09:48:35;;;;;;;3.60;1.77;;;28.30;99.90;;;;;;4141881;28;20096;-69
2022/09/10 09:50:42;;;;;;;2.90;1.50;;;28.20;99.90;;;;;;4141825;28;20060;-69
2022/09/10 09:52:52;;;;;;;4.35;1.88;;;27.90;99.90;;;;;;4139604;28;20497;-69
2022/09/10 09:55:05;;;;;;;7.05;1.95;;;28.00;99.90;;;;;;4140980;28;20477;-70
2022/09/10 09:57:19;;;;;;;7.28;1.70;;;28.20;99.90;;;;;;4143076;28;20050;-70
2022/09/10 09:59:28;;;;;;;4.03;2.50;;;28.30;99.90;;;;;;4140996;28;20049;-70
2022/09/10 10:01:33;;;;;;;5.22;3.00;;;28.40;99.90;;;;;;4140645;28;20054;-70
2022/09/10 10:03:57;;;;;;;5.00;3.25;;;28.40;99.90;;;;;;4139439;28;20092;-70
2022/09/10 10:06:08;;;;;;;8.23;3.72;;;28.30;99.90;;;;;;4142724;28;20488;-70
2022/09/10 10:08:27;;;;;;;6.03;3.10;;;28.30;99.90;;;;;;4141975;28;20129;-70
2022/09/10 10:10:32;;;;;;;7.85;6.30;;;28.40;99.90;;;;;;4142756;28;20053;-70
2022/09/10 10:12:36;;;;;;;10.93;8.50;;;28.40;99.90;;;;;;4143847;28;20060;-70
2022/09/10 10:14:42;;;;;;;11.05;7.90;;;28.30;99.90;;;;;;4143619;28;20053;-69
2022/09/10 10:16:51;;;;;;;9.95;8.60;;;28.30;99.90;;;;;;4141655;28;20058;-70
2022/09/10 10:19:02;;;;;;;10.15;5.97;;;28.20;99.90;;;;;;4156482;28;20065;-70
2022/09/10 10:21:15;;;;;;;9.32;5.95;;;28.10;99.90;;;;;;4142800;28;20416;-69
2022/09/10 10:23:35;;;;;;;11.43;4.68;;;27.90;99.90;;;;;;4140678;28;20046;-69
2022/09/10 10:25:44;;;;;;;8.15;3.90;;;27.90;99.90;;;;;;4142717;28;20677;-69
2022/09/10 10:27:50;;;;;;;13.48;2.70;;;28.00;99.90;;;;;;4142663;28;20048;-69
2022/09/10 10:30:21;;;;;;;4.20;2.42;;;28.10;99.90;;;;;;4141548;28;20129;-69
2022/09/10 10:32:56;;;;;;;3.50;1.85;;;28.10;99.90;;;;;;4139500;28;20524;-69
2022/09/10 10:35:32;;;;;;;4.35;2.20;;;27.90;99.90;;;;;;4172043;28;20415;-69
2022/09/10 10:38:09;;;;;;;4.22;1.80;;;27.90;99.90;;;;;;4140462;28;20149;-68
2022/09/10 10:40:42;;;;;;;6.13;1.90;;;27.80;99.90;;;;;;4141172;28;20054;-69
2022/09/10 10:43:05;;;;;;;4.10;1.90;;;27.90;99.90;;;;;;4128774;28;20495;-68
2022/09/10 10:45:41;;;;;;;8.60;4.28;;;28.00;99.90;;;;;;4142175;28;20046;-69
2022/09/10 10:48:03;;;;;;;7.32;3.97;;;28.10;99.90;;;;;;4170387;28;20045;-68
2022/09/10 10:50:21;;;;;;;;;;;28.30;99.90;;;;;;4139624;28;20065;-69
2022/09/10 10:52:46;;;;;;;9.55;3.63;;;28.30;99.90;;;;;;4140849;28;20348;-68
2022/09/10 10:55:22;;;;;;;7.30;3.25;;;28.20;99.90;;;;;;4140800;28;20061;-69
2022/09/10 10:58:06;;;;;;;9.80;3.25;;;28.20;99.90;;;;;;4139724;28;20058;-68
2022/09/10 11:00:19;;;;;;;9.35;4.22;;;28.20;99.90;;;;;;4139046;28;20053;-70
2022/09/10 11:02:49;;;;;;;9.95;3.78;;;28.20;99.90;;;;;;4138469;28;20048;-68
2022/09/10 11:04:57;;;;;;;6.45;3.05;;;28.20;99.90;;;;;;4141592;28;20722;-68
2022/09/10 11:07:07;;;;;;;8.05;3.42;;;28.20;99.90;;;;;;4140102;28;20050;-68
2022/09/10 11:09:30;;;;;;;9.38;3.05;;;28.20;99.90;;;;;;4141360;28;20116;-68
2022/09/10 11:12:01;;;;;;;5.55;3.05;;;28.20;99.90;;;;;;4137084;28;20042;-68
2022/09/10 11:14:31;;;;;;;6.55;3.30;;;28.20;99.90;;;;;;4141531;28;20056;-68
2022/09/10 11:16:42;;;;;;;5.72;2.70;;;28.20;99.90;;;;;;4171392;28;20140;-69
2022/09/10 11:19:01;;;;;;;4.88;2.83;;;28.30;99.90;;;;;;4141707;28;20045;-69
2022/09/10 11:21:28;;;;;;;4.57;2.60;;;28.20;99.90;;;;;;4141732;28;20078;-68
2022/09/10 11:24:06;;;;;;;4.82;2.97;;;28.30;99.90;;;;;;4156453;28;20096;-68
2022/09/10 11:26:35;;;;;;;5.97;3.15;;;28.30;99.90;;;;;;4140087;28;20054;-68